createdAt,value
2022-11-02T00:00:52.554Z,88030.22
2022-11-02T00:03:19.734Z,88021.84
2022-11-02T00:05:47.071Z,88023.66
2022-11-02T00:08:14.211Z,88021.31
2022-11-02T00:10:41.379Z,88021.59
2022-11-02T00:13:08.550Z,88020.06
2022-11-02T00:15:37.394Z,88021.94
2022-11-02T00:18:10.776Z,88020.75
2022-11-02T00:20:41.945Z,88018.50
2022-11-02T00:23:11.931Z,88021.38
2022-11-02T00:25:47.615Z,88027.69
2022-11-02T00:28:15.689Z,88030.25
2022-11-02T00:30:44.390Z,88033.31
2022-11-02T00:33:11.772Z,88029.13
2022-11-02T00:35:40.336Z,88024.91
2022-11-02T00:38:07.711Z,88030.13
2022-11-02T00:40:35.059Z,88025.53
2022-11-02T00:43:02.252Z,88028.88
2022-11-02T00:45:29.444Z,88037.81
2022-11-02T00:47:56.606Z,88041.75
2022-11-02T00:50:24.334Z,88041.31
2022-11-02T00:52:51.532Z,88039.31
2022-11-02T00:55:18.666Z,88038.97
2022-11-02T00:57:45.795Z,88041.50
2022-11-02T01:00:14.002Z,88041.44
2022-11-02T01:02:42.359Z,88042.13
2022-11-02T01:05:11.241Z,88039.06
2022-11-02T01:07:39.658Z,88042.31
2022-11-02T01:10:10.067Z,88034.38
2022-11-02T01:12:39.398Z,88039.19
2022-11-02T01:15:08.436Z,88036.00
2022-11-02T01:17:36.173Z,88041.16
2022-11-02T01:20:04.950Z,88040.94
2022-11-02T01:22:32.485Z,88032.69
2022-11-02T01:24:59.654Z,88036.09
2022-11-02T01:27:26.968Z,88032.28
2022-11-02T01:29:54.788Z,88036.00
2022-11-02T01:32:22.121Z,88031.44
2022-11-02T01:34:49.365Z,88030.75
2022-11-02T01:37:16.527Z,88037.81
2022-11-02T01:39:43.638Z,88037.75
2022-11-02T01:42:26.596Z,88039.66
2022-11-02T01:44:54.208Z,88038.59
2022-11-02T01:47:32.786Z,88038.94
2022-11-02T01:50:20.866Z,88036.97
2022-11-02T01:52:48.065Z,88032.91
2022-11-02T01:55:23.637Z,88044.91
2022-11-02T01:58:12.302Z,88051.59
2022-11-02T02:00:40.553Z,88046.50
2022-11-02T02:03:18.251Z,88045.00
2022-11-02T02:05:56.043Z,88056.16
2022-11-02T02:08:26.953Z,88051.25
2022-11-02T02:10:58.742Z,88048.97
2022-11-02T02:13:28.716Z,88047.09
2022-11-02T02:16:21.049Z,88048.53
2022-11-02T02:18:57.443Z,88045.16
2022-11-02T02:21:47.566Z,88040.75
2022-11-02T02:24:46.292Z,88046.94
2022-11-02T02:27:42.467Z,88046.09
2022-11-02T02:30:12.041Z,88035.59
2022-11-02T02:32:49.123Z,88047.88
2022-11-02T02:35:49.942Z,88042.28
2022-11-02T02:38:42.897Z,88033.88
2022-11-02T02:41:30.910Z,88024.50
2022-11-02T02:44:03.148Z,88030.84
2022-11-02T02:46:46.649Z,88020.94
2022-11-02T02:49:22.089Z,88026.88
2022-11-02T02:51:51.234Z,88029.03
2022-11-02T02:54:28.963Z,88025.56
2022-11-02T02:57:06.932Z,88033.78
2022-11-02T02:59:42.945Z,88020.91
2022-11-02T03:02:21.939Z,88028.94
2022-11-02T03:04:49.267Z,88027.75
2022-11-02T03:07:45.885Z,88029.13
2022-11-02T03:10:39.620Z,88023.34
2022-11-02T03:13:34.506Z,88022.56
2022-11-02T03:16:48.722Z,88019.09
2022-11-02T03:19:24.909Z,88022.38
2022-11-02T03:22:26.521Z,88027.13
2022-11-02T03:25:23.069Z,88040.88
2022-11-02T03:28:05.592Z,88032.25
2022-11-02T03:30:44.100Z,88037.41
2022-11-02T03:33:25.013Z,88028.47
2022-11-02T03:36:12.979Z,88032.41
2022-11-02T03:39:07.345Z,88025.66
2022-11-02T03:41:37.973Z,88028.59
2022-11-02T03:44:14.949Z,88025.53
2022-11-02T03:46:45.897Z,88022.84
2022-11-02T03:49:20.358Z,88022.41
2022-11-02T03:51:50.535Z,88023.50
2022-11-02T03:54:50.382Z,88022.72
2022-11-02T03:57:29.897Z,88015.56
2022-11-02T04:00:13.867Z,88018.25
2022-11-02T04:02:47.325Z,88014.63
2022-11-02T04:05:14.954Z,88015.41
2022-11-02T04:07:50.011Z,88019.22
2022-11-02T04:10:17.449Z,88021.06
2022-11-02T04:12:44.828Z,88025.31
2022-11-02T04:15:11.992Z,88019.66
2022-11-02T04:17:39.198Z,88024.22
2022-11-02T04:20:07.325Z,88024.66
2022-11-02T04:22:34.470Z,88019.41
2022-11-02T04:25:01.777Z,88018.72
2022-11-02T04:27:29.036Z,88023.66
2022-11-02T04:29:56.219Z,88026.69
2022-11-02T04:32:23.529Z,88028.56
2022-11-02T04:34:50.716Z,88020.75
2022-11-02T04:37:17.880Z,88029.81
2022-11-02T04:39:45.094Z,88023.50
2022-11-02T04:42:12.163Z,88026.13
2022-11-02T04:44:39.345Z,88037.09
2022-11-02T04:47:06.637Z,88036.03
2022-11-02T04:49:33.845Z,88034.25
2022-11-02T04:52:01.051Z,88037.06
2022-11-02T04:54:28.179Z,88036.72
2022-11-02T04:56:55.330Z,88040.94
2022-11-02T04:59:22.516Z,88043.25
2022-11-02T05:01:49.862Z,88044.44
2022-11-02T05:04:17.148Z,88038.50
2022-11-02T05:06:44.296Z,88034.88
2022-11-02T05:09:11.401Z,88040.56
2022-11-02T05:11:38.588Z,88040.66
2022-11-02T05:14:05.902Z,88043.34
2022-11-02T05:16:33.396Z,88046.09
2022-11-02T05:19:00.538Z,88048.34
2022-11-02T05:21:27.646Z,88052.16
2022-11-02T05:23:54.871Z,88052.25
2022-11-02T05:26:22.223Z,88056.41
2022-11-02T05:28:49.475Z,88042.28
2022-11-02T05:31:16.612Z,88055.06
2022-11-02T05:33:43.739Z,88056.59
2022-11-02T05:36:11.035Z,88054.81
2022-11-02T05:41:09.559Z,88055.22
2022-11-02T05:43:36.751Z,88059.63
2022-11-02T05:46:05.288Z,88064.63
2022-11-02T05:48:33.796Z,88060.47
2022-11-02T05:51:04.136Z,88068.44
2022-11-02T05:53:33.555Z,88062.09
2022-11-02T05:56:02.489Z,88067.44
2022-11-02T05:58:29.944Z,88067.50
2022-11-02T06:01:02.828Z,88074.72
2022-11-02T06:03:31.658Z,88074.81
2022-11-02T06:06:01.780Z,88085.31
2022-11-02T06:08:32.273Z,88077.31
2022-11-02T06:11:06.944Z,88082.28
2022-11-02T06:13:34.684Z,88085.31
2022-11-02T06:16:05.097Z,88085.78
2022-11-02T06:18:32.439Z,88091.44
2022-11-02T06:21:00.651Z,88085.50
2022-11-02T06:23:29.468Z,88089.31
2022-11-02T06:26:00.228Z,88091.94
2022-11-02T06:28:28.798Z,88088.13
2022-11-02T06:30:56.611Z,88088.53
2022-11-02T06:33:24.150Z,88085.59
2022-11-02T06:35:54.156Z,88095.75
2022-11-02T06:38:22.236Z,88100.66
2022-11-02T06:41:01.839Z,88103.72
2022-11-02T06:43:29.016Z,88101.09
2022-11-02T06:45:58.391Z,88101.53
2022-11-02T06:48:34.230Z,88103.44
2022-11-02T06:51:04.142Z,88111.44
2022-11-02T06:53:31.614Z,88108.03
2022-11-02T06:56:00.405Z,88113.69
2022-11-02T06:58:27.985Z,88112.25
2022-11-02T07:01:05.464Z,88111.25
2022-11-02T07:03:33.203Z,88113.88
2022-11-02T07:06:00.977Z,88118.03
2022-11-02T07:08:28.719Z,88118.44
2022-11-02T07:10:56.337Z,88118.88
2022-11-02T07:13:24.164Z,88117.00
2022-11-02T07:15:57.745Z,88117.75
2022-11-02T07:18:24.982Z,88116.31
2022-11-02T07:20:52.172Z,88121.56
2022-11-02T07:23:19.551Z,88125.72
2022-11-02T07:25:46.689Z,88124.63
2022-11-02T07:28:14.049Z,88126.06
2022-11-02T07:30:41.254Z,88124.19
2022-11-02T07:33:08.705Z,88132.91
2022-11-02T07:35:36.170Z,88136.31
2022-11-02T07:38:07.976Z,88135.13
2022-11-02T07:40:36.876Z,88130.28
2022-11-02T07:43:05.480Z,88126.31
2022-11-02T07:45:33.413Z,88141.38
2022-11-02T07:48:00.630Z,88144.47
2022-11-02T07:50:27.826Z,88141.84
2022-11-02T07:52:58.270Z,88143.75
2022-11-02T07:55:29.495Z,88134.44
2022-11-02T07:58:10.402Z,88138.25
2022-11-02T08:00:39.962Z,88137.47
2022-11-02T08:03:10.189Z,88135.69
2022-11-02T08:05:41.175Z,88126.69
2022-11-02T08:08:21.498Z,88138.06
2022-11-02T08:10:52.244Z,88132.13
2022-11-02T08:13:24.392Z,88135.59
2022-11-02T08:15:54.074Z,88137.19
2022-11-02T08:18:27.607Z,88141.75
2022-11-02T08:20:59.442Z,88136.84
2022-11-02T08:23:27.247Z,88138.78
2022-11-02T08:25:58.011Z,88144.19
2022-11-02T08:28:29.148Z,88148.06
2022-11-02T08:30:58.180Z,88147.75
2022-11-02T08:33:25.717Z,88140.34
2022-11-02T08:35:52.964Z,88146.00
2022-11-02T08:38:20.603Z,88138.00
2022-11-02T08:40:48.473Z,88139.25
2022-11-02T08:43:15.928Z,88144.16
2022-11-02T08:48:32.550Z,88135.16
2022-11-02T08:50:59.812Z,88134.03
2022-11-02T08:53:27.010Z,88130.03
2022-11-02T08:55:57.789Z,88127.13
2022-11-02T08:58:24.975Z,88131.69
2022-11-02T09:00:53.950Z,88127.63
2022-11-02T09:03:26.121Z,88126.94
2022-11-02T09:06:02.146Z,88122.91
2022-11-02T09:08:30.453Z,88125.31
2022-11-02T09:11:03.554Z,88121.66
2022-11-02T09:13:30.880Z,88118.09
2022-11-02T09:16:00.257Z,88114.09
2022-11-02T09:18:27.773Z,88117.63
2022-11-02T09:20:55.627Z,88101.94
2022-11-02T09:23:23.765Z,88103.53
2022-11-02T09:25:51.219Z,88096.13
2022-11-02T09:28:18.808Z,88093.94
2022-11-02T09:30:46.483Z,88092.47
2022-11-02T09:33:13.801Z,88078.25
2022-11-02T09:35:46.903Z,88076.50
2022-11-02T09:38:14.929Z,88072.31
2022-11-02T09:41:00.292Z,88068.22
2022-11-02T09:44:14.452Z,88067.13
2022-11-02T09:46:46.969Z,88064.53
2022-11-02T09:49:18.793Z,88062.38
2022-11-02T09:51:56.099Z,88058.31
2022-11-02T09:54:40.467Z,88053.84
2022-11-02T09:57:16.792Z,88046.41
2022-11-02T09:59:44.201Z,88052.50
2022-11-02T10:02:39.074Z,88047.31
2022-11-02T10:05:24.916Z,88050.00
2022-11-02T10:08:01.080Z,88047.47
2022-11-02T10:10:42.029Z,88041.19
2022-11-02T10:13:34.785Z,88034.88
2022-11-02T10:16:28.050Z,88027.81
2022-11-02T10:18:55.335Z,88014.34
2022-11-02T10:21:33.885Z,88013.72
2022-11-02T10:24:28.979Z,87999.44
2022-11-02T10:27:00.867Z,87996.91
2022-11-02T10:29:45.825Z,87998.91
2022-11-02T10:32:15.697Z,87991.44
2022-11-02T10:34:50.482Z,87992.63
2022-11-02T10:38:04.453Z,87990.44
2022-11-02T10:41:24.106Z,87982.63
2022-11-02T10:44:09.187Z,87978.53
2022-11-02T10:47:11.412Z,87981.97
2022-11-02T10:49:59.798Z,87979.81
2022-11-02T10:52:42.378Z,87981.75
2022-11-02T10:55:36.769Z,87972.72
2022-11-02T10:58:09.172Z,87971.28
2022-11-02T11:00:37.783Z,87969.09
2022-11-02T11:03:15.161Z,87963.06
2022-11-02T11:05:51.556Z,87960.13
2022-11-02T11:08:36.853Z,87963.97
2022-11-02T11:11:24.167Z,87964.78
2022-11-02T11:20:24.577Z,87943.19
2022-11-02T11:23:26.827Z,87941.03
2022-11-02T11:25:58.294Z,87936.94
2022-11-02T11:28:28.440Z,87932.06
2022-11-02T11:31:08.897Z,87927.50
2022-11-02T11:33:57.857Z,87922.47
2022-11-02T11:36:32.142Z,87925.31
2022-11-02T11:39:30.245Z,87921.78
2022-11-02T11:41:58.838Z,87919.94
2022-11-02T11:44:26.713Z,87920.41
2022-11-02T11:46:58.109Z,87923.91
2022-11-02T11:52:34.540Z,87926.28
2022-11-02T11:55:24.655Z,87919.78
2022-11-02T11:58:45.370Z,87924.00
2022-11-02T12:01:17.927Z,87920.25
2022-11-02T12:04:00.022Z,87915.34
2022-11-02T12:06:50.754Z,87915.72
2022-11-02T12:09:23.692Z,87911.19
2022-11-02T12:12:08.892Z,87906.66
2022-11-02T12:15:09.276Z,87894.91
2022-11-02T12:18:13.655Z,87891.13
2022-11-02T12:21:13.533Z,87887.34
2022-11-02T12:23:59.153Z,87877.50
2022-11-02T12:27:00.252Z,87879.75
2022-11-02T12:30:15.212Z,87879.34
2022-11-02T12:33:03.516Z,87878.56
2022-11-02T12:36:07.612Z,87870.56
2022-11-02T12:38:59.763Z,87871.59
2022-11-02T12:42:01.839Z,87866.34
2022-11-02T12:44:47.617Z,87864.28
2022-11-02T12:47:53.098Z,87865.19
2022-11-02T12:50:51.045Z,87859.56
2022-11-02T12:53:36.922Z,87858.25
2022-11-02T12:56:11.862Z,87858.41
2022-11-02T12:58:41.645Z,87857.78
2022-11-02T13:01:38.023Z,87850.75
2022-11-02T13:04:26.016Z,87849.75
2022-11-02T13:07:09.763Z,87847.59
2022-11-02T13:09:51.847Z,87848.81
2022-11-02T13:12:23.841Z,87845.06
2022-11-02T13:14:56.638Z,87844.72
2022-11-02T13:17:40.802Z,87833.34
2022-11-02T13:20:21.981Z,87832.66
2022-11-02T13:23:04.503Z,87833.78
2022-11-02T13:25:55.416Z,87834.94
2022-11-02T13:28:42.545Z,87830.06
2022-11-02T13:31:25.650Z,87830.06
2022-11-02T13:33:57.547Z,87829.69
2022-11-02T13:36:25.977Z,87829.31
2022-11-02T13:39:19.549Z,87836.16
2022-11-02T13:41:55.467Z,87830.47
2022-11-02T13:44:40.540Z,87829.34
2022-11-02T13:48:21.288Z,87835.03
2022-11-02T13:50:57.558Z,87835.78
2022-11-02T13:53:39.837Z,87839.97
2022-11-02T13:56:21.389Z,87833.16
2022-11-02T13:58:57.248Z,87841.13
2022-11-02T14:01:26.882Z,87841.47
2022-11-02T14:04:09.335Z,87837.34
2022-11-02T14:07:02.971Z,87835.47
2022-11-02T14:09:42.028Z,87834.31
2022-11-02T14:12:27.155Z,87833.59
2022-11-02T14:15:23.658Z,87843.03
2022-11-02T14:17:53.794Z,87845.72
2022-11-02T14:20:44.159Z,87838.13
2022-11-02T14:23:11.367Z,87843.44
2022-11-02T14:25:45.781Z,87850.25
2022-11-02T14:28:22.164Z,87843.41
2022-11-02T14:31:05.540Z,87850.22
2022-11-02T14:34:30.931Z,87846.47
2022-11-02T14:37:33.176Z,87847.56
2022-11-02T14:40:31.155Z,87840.00
2022-11-02T14:43:31.917Z,87843.41
2022-11-02T14:46:38.265Z,87843.03
2022-11-02T14:49:15.778Z,87832.03
2022-11-02T14:51:45.863Z,87841.13
2022-11-02T14:54:20.394Z,87835.81
2022-11-02T14:57:05.171Z,87838.47
2022-11-02T14:59:45.651Z,87843.41
2022-11-02T15:02:38.651Z,87843.03
2022-11-02T15:05:38.405Z,87839.63
2022-11-02T15:08:06.023Z,87848.72
2022-11-02T15:10:33.109Z,87846.06
2022-11-02T15:13:19.148Z,87847.94
2022-11-02T15:15:55.004Z,87854.75
2022-11-02T15:18:40.325Z,87847.56
2022-11-02T15:21:10.344Z,87855.50
2022-11-02T15:24:15.564Z,87848.66
2022-11-02T15:26:59.118Z,87853.56
2022-11-02T15:29:44.979Z,87862.28
2022-11-02T15:32:26.921Z,87873.25
2022-11-02T15:34:57.188Z,87871.34
2022-11-02T15:37:37.433Z,87868.66
2022-11-02T15:40:50.204Z,87877.34
2022-11-02T15:43:58.786Z,87872.41
2022-11-02T15:46:47.403Z,87866.31
2022-11-02T15:49:59.213Z,87876.13
2022-11-02T15:52:46.470Z,87869.69
2022-11-02T15:56:02.222Z,87868.53
2022-11-02T15:58:52.491Z,87873.00
2022-11-02T16:01:28.374Z,87879.44
2022-11-02T16:04:01.486Z,87880.56
2022-11-02T16:06:49.108Z,87876.75
2022-11-02T16:09:39.203Z,87877.84
2022-11-02T16:12:24.758Z,87883.09
2022-11-02T16:14:58.219Z,87885.00
2022-11-02T16:17:28.069Z,87892.19
2022-11-02T16:20:18.514Z,87891.03
2022-11-02T16:22:54.296Z,87890.59
2022-11-02T16:25:41.618Z,87899.63
2022-11-02T16:28:17.356Z,87887.56
2022-11-02T16:31:10.067Z,87897.38
2022-11-02T16:33:48.540Z,87887.53
2022-11-02T16:36:19.042Z,87890.53
2022-11-02T16:39:21.707Z,87882.22
2022-11-02T16:41:54.057Z,87885.97
2022-11-02T16:44:27.525Z,87882.56
2022-11-02T16:47:01.101Z,87886.69
2022-11-02T16:49:29.388Z,87882.13
2022-11-02T16:52:17.894Z,87885.50
2022-11-02T16:54:45.878Z,87883.22
2022-11-02T16:57:21.073Z,87876.03
2022-11-02T17:00:01.488Z,87884.28
2022-11-02T17:02:42.764Z,87888.78
2022-11-02T17:05:25.016Z,87894.00
2022-11-02T17:08:05.907Z,87899.56
2022-11-02T17:10:36.092Z,87901.81
2022-11-02T17:13:06.997Z,87907.41
2022-11-02T17:15:35.015Z,87913.47
2022-11-02T17:18:08.653Z,87921.34
2022-11-02T17:20:38.718Z,87927.00
2022-11-02T17:23:10.483Z,87932.25
2022-11-02T17:25:40.635Z,87931.44
2022-11-02T17:28:47.087Z,87945.00
2022-11-02T17:31:33.535Z,87943.91
2022-11-02T17:34:17.617Z,87931.03
2022-11-02T17:36:48.223Z,87935.22
2022-11-02T17:39:19.013Z,87948.78
2022-11-02T17:41:54.207Z,87944.63
2022-11-02T17:44:21.353Z,87945.38
2022-11-02T17:46:48.754Z,87949.91
2022-11-02T17:49:15.881Z,87953.63
2022-11-02T17:51:43.265Z,87954.78
2022-11-02T17:54:14.201Z,87963.81
2022-11-02T17:56:41.809Z,87966.81
2022-11-02T17:59:09.030Z,87969.84
2022-11-02T18:01:36.470Z,87966.34
2022-11-02T18:04:03.787Z,87966.31
2022-11-02T18:06:30.939Z,87962.13
2022-11-02T18:08:58.019Z,87956.81
2022-11-02T18:11:26.645Z,87966.56
2022-11-02T18:13:54.104Z,87959.78
2022-11-02T18:16:21.446Z,87960.50
2022-11-02T18:18:48.667Z,87962.72
2022-11-02T18:21:16.002Z,87967.97
2022-11-02T18:23:43.123Z,87966.84
2022-11-02T18:26:12.526Z,87963.03
2022-11-02T18:28:40.257Z,87964.13
2022-11-02T18:31:09.141Z,87958.06
2022-11-02T18:33:36.473Z,87958.72
2022-11-02T18:36:09.661Z,87960.59
2022-11-02T18:38:37.778Z,87962.78
2022-11-02T18:41:09.606Z,87965.03
2022-11-02T18:43:36.827Z,87962.78
2022-11-02T18:46:04.035Z,87961.66
2022-11-02T18:48:31.165Z,87951.81
2022-11-02T18:51:03.255Z,87954.03
2022-11-02T18:53:30.432Z,87943.44
2022-11-02T18:56:06.802Z,87943.03
2022-11-02T18:58:34.097Z,87956.97
2022-11-02T19:01:13.032Z,87960.59
2022-11-02T19:03:40.268Z,87957.97
2022-11-02T19:06:07.651Z,87961.31
2022-11-02T19:08:35.115Z,87955.53
2022-11-02T19:11:02.291Z,87959.66
2022-11-02T19:13:29.473Z,87961.13
2022-11-02T19:15:56.830Z,87960.31
2022-11-02T19:18:24.061Z,87956.16
2022-11-02T19:20:51.690Z,87970.00
2022-11-02T19:23:18.855Z,87966.63
2022-11-02T19:25:52.406Z,87966.91
2022-11-02T19:28:19.529Z,87969.50
2022-11-02T19:30:46.988Z,87970.28
2022-11-02T19:33:14.191Z,87968.75
2022-11-02T19:35:41.350Z,87971.38
2022-11-02T19:38:08.599Z,87971.00
2022-11-02T19:40:35.908Z,87961.94
2022-11-02T19:43:03.705Z,87959.78
2022-11-02T19:45:31.199Z,87956.72
2022-11-02T19:48:02.122Z,87954.88
2022-11-02T19:50:29.433Z,87964.63
2022-11-02T19:52:56.874Z,87958.97
2022-11-02T19:55:24.033Z,87958.97
2022-11-02T19:57:51.223Z,87960.06
2022-11-02T20:00:18.658Z,87960.06
2022-11-02T20:02:49.541Z,87953.28
2022-11-02T20:05:16.948Z,87947.25
2022-11-02T20:07:44.074Z,87949.50
2022-11-02T20:10:11.295Z,87945.72
2022-11-02T20:12:38.562Z,87949.50
2022-11-02T20:15:06.344Z,87938.16
2022-11-02T20:17:46.576Z,87951.31
2022-11-02T20:20:19.626Z,87949.75
2022-11-02T20:22:46.821Z,87956.47
2022-11-02T20:25:14.273Z,87955.72
2022-11-02T20:27:41.542Z,87967.25
2022-11-02T20:30:09.559Z,87964.97
2022-11-02T20:32:36.910Z,87959.59
2022-11-02T20:35:07.434Z,87963.69
2022-11-02T20:37:38.364Z,87962.13
2022-11-02T20:40:06.271Z,87966.22
2022-11-02T20:42:35.851Z,87965.38
2022-11-02T20:45:03.148Z,87969.06
2022-11-02T20:47:30.323Z,87960.63
2022-11-02T20:49:57.853Z,87966.59
2022-11-02T20:52:25.079Z,87960.50
2022-11-02T20:54:52.333Z,87973.97
2022-11-02T20:57:19.506Z,87973.16
2022-11-02T20:59:46.753Z,87985.13
2022-11-02T21:02:14.138Z,87976.81
2022-11-02T21:04:41.568Z,87973.03
2022-11-02T21:07:08.770Z,87987.31
2022-11-02T21:09:36.145Z,87979.34
2022-11-02T21:12:03.489Z,87980.78
2022-11-02T21:14:30.597Z,87982.59
2022-11-02T21:16:57.888Z,87978.06
2022-11-02T21:19:25.335Z,87978.38
2022-11-02T21:21:56.712Z,87979.44
2022-11-02T21:24:28.132Z,87981.66
2022-11-02T21:26:55.316Z,87976.34
2022-11-02T21:29:22.443Z,87977.03
2022-11-02T21:31:49.661Z,87977.06
2022-11-02T21:34:17.130Z,87975.56
2022-11-02T21:36:44.425Z,87982.78
2022-11-02T21:39:11.619Z,87979.03
2022-11-02T21:41:38.780Z,87983.94
2022-11-02T21:44:07.425Z,87978.34
2022-11-02T21:46:35.536Z,87974.25
2022-11-02T21:49:03.134Z,87982.19
2022-11-02T21:51:30.675Z,87979.91
2022-11-02T21:53:57.938Z,87980.69
2022-11-02T21:56:27.866Z,87978.38
2022-11-02T21:58:55.660Z,87978.75
2022-11-02T22:01:31.145Z,87981.78
2022-11-02T22:03:58.831Z,87985.50
2022-11-02T22:06:30.995Z,87981.38
2022-11-02T22:08:59.982Z,87984.78
2022-11-02T22:11:28.589Z,87981.78
2022-11-02T22:13:59.175Z,87974.66
2022-11-02T22:16:34.940Z,87981.78
2022-11-02T22:19:08.298Z,87979.97
2022-11-02T22:21:45.877Z,87982.56
2022-11-02T22:24:13.078Z,87980.25
2022-11-02T22:26:41.417Z,87986.69
2022-11-02T22:29:09.411Z,87980.69
2022-11-02T22:31:40.411Z,87986.34
2022-11-02T22:34:11.234Z,87981.50
2022-11-02T22:36:44.959Z,87984.13
2022-11-02T22:39:13.902Z,87983.00
2022-11-02T22:41:48.124Z,87979.66
2022-11-02T22:44:19.183Z,87981.50
2022-11-02T22:46:50.044Z,87975.13
2022-11-02T22:49:19.561Z,87982.69
2022-11-02T22:51:50.052Z,87984.19
2022-11-02T22:54:20.304Z,87981.84
2022-11-02T22:56:48.974Z,87980.38
2022-11-02T22:59:16.950Z,87974.38
2022-11-02T23:01:44.347Z,87978.16
2022-11-02T23:04:12.243Z,87983.41
2022-11-02T23:06:40.095Z,87980.78
2022-11-02T23:09:10.843Z,87975.97
2022-11-02T23:11:38.404Z,87974.44
2022-11-02T23:14:09.997Z,87979.34
2022-11-02T23:16:43.656Z,87972.22
2022-11-02T23:19:25.328Z,87969.16
2022-11-02T23:22:12.407Z,87965.44
2022-11-02T23:24:45.070Z,87961.31
2022-11-02T23:27:12.257Z,87973.75
2022-11-02T23:29:39.446Z,87967.72
2022-11-02T23:32:07.234Z,87977.97
2022-11-02T23:34:34.382Z,87967.44
2022-11-02T23:37:01.900Z,87972.63
2022-11-02T23:39:29.128Z,87969.97
2022-11-02T23:41:56.265Z,87961.31
2022-11-02T23:44:23.451Z,87959.47
2022-11-02T23:46:52.524Z,87960.59
2022-11-02T23:49:19.735Z,87970.69
2022-11-02T23:51:46.914Z,87965.44
2022-11-02T23:54:14.054Z,87966.94
2022-11-02T23:56:41.288Z,87958.28
2022-11-02T23:59:08.902Z,87954.56
